Time;durP1;ratioP1;P1;durP2;ratioP2;P2;SDS_P1;SDS_P2;PMS_P1;PMS_P2;Temp;Humidity;BMP_temperature;BMP_pressure;BME280_temperature;BME280_humidity;BME280_pressure;Samples;Min_cycle;Max_cycle;Signal;HPM_P1;HPM_P2
2022/04/11 00:01:53;;;;;;;0.80;0.80;;;5.30;99.90;;;;;;6198245;28;20276;-91
2022/04/11 00:05:00;;;;;;;1.50;0.90;;;5.20;99.90;;;;;;6196012;28;20272;-90
2022/04/11 00:08:07;;;;;;;2.77;0.93;;;5.20;99.90;;;;;;6197375;28;20305;-91
2022/04/11 00:11:12;;;;;;;1.00;1.00;;;5.10;99.90;;;;;;6213706;28;20280;-90
2022/04/11 00:14:20;;;;;;;4.53;1.03;;;5.10;99.90;;;;;;6181828;28;20304;-90
2022/04/11 00:17:35;;;;;;;1.03;0.97;;;5.10;99.90;;;;;;6197315;28;20296;-90
2022/04/11 00:20:42;;;;;;;4.97;1.00;;;5.00;99.90;;;;;;6198025;28;20583;-91
2022/04/11 00:23:48;;;;;;;1.33;0.90;;;4.90;99.90;;;;;;6214197;28;20336;-91
2022/04/11 00:26:53;;;;;;;2.53;1.00;;;4.80;99.90;;;;;;6198194;28;20284;-91
2022/04/11 00:30:00;;;;;;;5.23;0.90;;;4.80;99.90;;;;;;6203077;28;20401;-90
2022/04/11 00:33:09;;;;;;;0.90;0.87;;;4.80;99.90;;;;;;6189711;28;20309;-90
2022/04/11 00:36:15;;;;;;;1.03;0.97;;;4.70;99.90;;;;;;6201853;28;20292;-91
2022/04/11 00:39:21;;;;;;;2.40;0.87;;;4.80;99.90;;;;;;6216108;28;20320;-89
2022/04/11 00:42:28;;;;;;;1.33;0.70;;;4.70;99.90;;;;;;6207947;28;20271;-90
2022/04/11 00:45:36;;;;;;;2.87;0.90;;;4.70;99.90;;;;;;6228039;28;20224;-91
2022/04/11 00:48:42;;;;;;;0.77;0.77;;;4.60;99.90;;;;;;6212233;28;20245;-90
2022/04/11 00:51:47;;;;;;;3.00;1.00;;;4.60;99.90;;;;;;6212151;28;20243;-90
2022/04/11 00:54:53;;;;;;;1.83;0.90;;;4.60;99.90;;;;;;6199251;28;20298;-91
2022/04/11 00:57:59;;;;;;;2.10;0.90;;;4.60;99.90;;;;;;6196616;28;20586;-92
2022/04/11 01:01:08;;;;;;;1.70;0.93;;;4.50;99.90;;;;;;6197460;28;20283;-90
2022/04/11 01:04:24;;;;;;;1.00;1.00;;;4.50;99.90;;;;;;6212612;28;20583;-91
2022/04/11 01:07:30;;;;;;;1.20;1.10;;;4.50;99.90;;;;;;6195753;28;20316;-89
2022/04/11 01:10:36;;;;;;;1.10;1.10;;;4.40;99.90;;;;;;6204103;28;20284;-91
2022/04/11 01:13:42;;;;;;;5.67;0.93;;;4.40;99.90;;;;;;6204541;28;20303;-91
2022/04/11 01:17:03;;;;;;;2.97;1.00;;;4.40;99.90;;;;;;6205100;28;20311;-92
2022/04/11 01:20:16;;;;;;;1.00;0.83;;;4.40;99.90;;;;;;6179785;28;20564;-91
2022/04/11 01:23:23;;;;;;;2.87;1.50;;;4.30;99.90;;;;;;6206898;28;20552;-91
2022/04/11 01:26:30;;;;;;;1.13;1.07;;;4.30;99.90;;;;;;6194638;28;20273;-91
2022/04/11 01:29:36;;;;;;;2.17;1.10;;;4.30;99.90;;;;;;6177139;28;20292;-92
2022/04/11 01:32:43;;;;;;;3.80;1.00;;;4.30;99.90;;;;;;6209655;28;20301;-91
2022/04/11 01:35:50;;;;;;;1.57;0.93;;;4.20;99.90;;;;;;6192970;28;20299;-91
2022/04/11 01:38:58;;;;;;;1.00;1.00;;;4.20;99.90;;;;;;6176825;28;20299;-90
2022/04/11 01:42:05;;;;;;;0.90;0.90;;;4.20;99.90;;;;;;6176702;28;20279;-92
2022/04/11 01:45:14;;;;;;;1.00;0.87;;;4.20;99.90;;;;;;6178051;28;20541;-91
2022/04/11 01:48:20;;;;;;;1.00;1.00;;;4.20;99.90;;;;;;6209296;28;20293;-91
2022/04/11 01:51:26;;;;;;;0.80;0.80;;;4.10;99.90;;;;;;6209078;28;20558;-91
2022/04/11 01:54:33;;;;;;;0.80;0.80;;;4.10;99.90;;;;;;6208458;28;20306;-91
2022/04/11 01:57:39;;;;;;;1.07;0.97;;;4.10;99.90;;;;;;6176331;28;20291;-91
2022/04/11 02:00:46;;;;;;;5.17;1.30;;;4.00;99.90;;;;;;6161665;28;20280;-90
2022/04/11 02:03:52;;;;;;;0.93;0.93;;;4.00;99.90;;;;;;6177608;28;20303;-90
2022/04/11 02:06:58;;;;;;;2.73;0.80;;;4.00;99.90;;;;;;6179418;28;20268;-90
2022/04/11 02:10:09;;;;;;;2.10;0.87;;;3.90;99.90;;;;;;6180910;28;20300;-90
2022/04/11 02:13:16;;;;;;;2.97;1.07;;;4.00;99.90;;;;;;6183874;28;20303;-90
2022/04/11 02:16:23;;;;;;;0.80;0.80;;;3.90;99.90;;;;;;6216764;28;20295;-92
2022/04/11 02:19:29;;;;;;;1.33;0.80;;;3.80;99.90;;;;;;6215074;28;20303;-91
2022/04/11 02:22:47;;;;;;;1.30;0.90;;;3.80;99.90;;;;;;6216252;28;20302;-90
2022/04/11 02:25:54;;;;;;;1.00;0.90;;;3.70;99.90;;;;;;6216742;28;20267;-92
2022/04/11 02:29:00;;;;;;;5.40;0.90;;;3.70;99.90;;;;;;6199279;28;20306;-92
2022/04/11 02:32:08;;;;;;;1.70;0.80;;;3.70;99.90;;;;;;6200353;28;20282;-91
2022/04/11 02:35:16;;;;;;;4.60;1.27;;;3.70;99.90;;;;;;6217416;28;20286;-90
2022/04/11 02:38:22;;;;;;;0.80;0.80;;;3.70;99.90;;;;;;6200594;28;20302;-92
2022/04/11 02:41:39;;;;;;;0.80;0.80;;;3.60;99.90;;;;;;6185546;28;20558;-91
2022/04/11 02:44:44;;;;;;;0.80;0.80;;;3.60;99.90;;;;;;6198965;28;20298;-93
2022/04/11 02:47:51;;;;;;;0.60;0.60;;;3.60;99.90;;;;;;6200124;28;20584;-91
2022/04/11 02:50:57;;;;;;;3.30;0.80;;;3.60;99.90;;;;;;6217000;28;20276;-90
2022/04/11 02:54:13;;;;;;;0.93;0.93;;;3.60;99.90;;;;;;6215408;28;20310;-90
2022/04/11 02:57:24;;;;;;;1.80;0.70;;;3.60;99.90;;;;;;6199729;28;20458;-90
2022/04/11 03:00:31;;;;;;;0.70;0.70;;;3.60;99.90;;;;;;6199992;28;20270;-92
2022/04/11 03:03:37;;;;;;;1.60;0.80;;;3.60;99.90;;;;;;6194458;28;20308;-91
2022/04/11 03:06:45;;;;;;;3.60;0.80;;;3.50;99.90;;;;;;6187155;28;20287;-90
2022/04/11 03:09:54;;;;;;;0.90;0.90;;;3.60;99.90;;;;;;6181000;28;20314;-90
2022/04/11 03:13:02;;;;;;;0.93;0.93;;;3.50;99.90;;;;;;6174427;28;20467;-90
2022/04/11 03:16:12;;;;;;;2.03;0.90;;;3.40;99.90;;;;;;6175647;28;20466;-90
2022/04/11 03:19:20;;;;;;;1.60;0.80;;;3.40;99.90;;;;;;6175112;28;20492;-89
2022/04/11 03:22:28;;;;;;;4.13;0.90;;;3.30;99.90;;;;;;6174047;28;20296;-90
2022/04/11 03:25:40;;;;;;;1.60;0.80;;;3.20;99.90;;;;;;6191080;28;20277;-90
2022/04/11 03:28:52;;;;;;;0.87;0.87;;;3.20;99.90;;;;;;6174363;28;20297;-91
2022/04/11 03:31:59;;;;;;;5.67;0.90;;;3.20;99.90;;;;;;6171984;28;20268;-92
2022/04/11 03:35:10;;;;;;;0.93;0.93;;;3.20;99.90;;;;;;6175011;28;20286;-90
2022/04/11 03:38:18;;;;;;;1.20;1.10;;;3.20;99.90;;;;;;6174293;28;20294;-91
2022/04/11 03:41:27;;;;;;;2.30;1.00;;;3.10;99.90;;;;;;6174751;28;20283;-91
2022/04/11 03:44:46;;;;;;;2.73;1.00;;;3.10;99.90;;;;;;6173334;28;20302;-90
2022/04/11 03:47:57;;;;;;;0.70;0.70;;;3.00;99.90;;;;;;6173883;28;20301;-90
2022/04/11 03:51:08;;;;;;;3.03;1.07;;;3.00;99.90;;;;;;6190877;28;20301;-92
2022/04/11 03:54:14;;;;;;;0.93;0.93;;;2.90;99.90;;;;;;6173295;28;20309;-92
2022/04/11 03:57:22;;;;;;;3.17;0.90;;;2.80;99.90;;;;;;6174663;28;20296;-91
2022/04/11 04:00:31;;;;;;;2.93;0.80;;;2.90;99.90;;;;;;6174398;28;20575;-92
2022/04/11 04:04:06;;;;;;;3.70;1.00;;;2.90;99.90;;;;;;6191409;28;20304;-91
2022/04/11 04:07:13;;;;;;;1.50;0.87;;;2.80;99.90;;;;;;6158320;28;20281;-91
2022/04/11 04:10:26;;;;;;;1.03;1.03;;;2.80;99.90;;;;;;6150379;29;20276;-91
2022/04/11 04:13:35;;;;;;;0.97;0.97;;;2.80;99.90;;;;;;6121145;29;20302;-91
2022/04/11 04:16:44;;;;;;;1.00;1.00;;;2.80;99.90;;;;;;6151078;29;20282;-92
2022/04/11 04:19:53;;;;;;;3.20;0.90;;;2.80;99.90;;;;;;6149629;29;20305;-90
2022/04/11 04:23:01;;;;;;;3.10;0.90;;;2.80;99.90;;;;;;6133043;29;20291;-92
2022/04/11 04:26:12;;;;;;;1.10;1.00;;;2.80;99.90;;;;;;6134638;29;20282;-90
2022/04/11 04:29:20;;;;;;;2.70;0.90;;;2.80;99.90;;;;;;6149314;29;20299;-91
2022/04/11 04:32:32;;;;;;;2.80;1.00;;;2.80;99.90;;;;;;6135137;29;20298;-91
2022/04/11 04:35:38;;;;;;;7.67;1.00;;;2.80;99.90;;;;;;6150142;29;20283;-90
2022/04/11 04:38:57;;;;;;;1.27;0.90;;;2.80;99.90;;;;;;6133344;29;20309;-92
2022/04/11 04:42:06;;;;;;;3.93;1.00;;;2.80;99.90;;;;;;6150668;29;20281;-91
2022/04/11 04:45:19;;;;;;;3.00;1.27;;;2.90;99.90;;;;;;6150105;29;20277;-91
2022/04/11 04:49:03;;;;;;;4.87;1.30;;;2.90;99.90;;;;;;6156880;28;20489;-93
2022/04/11 04:52:13;;;;;;;2.77;1.20;;;2.90;99.90;;;;;;6149674;29;20269;-90
2022/04/11 04:55:33;;;;;;;0.97;0.97;;;3.00;99.90;;;;;;6148981;29;20274;-89
2022/04/11 04:58:41;;;;;;;1.17;0.90;;;3.00;99.90;;;;;;6146910;29;20309;-90
2022/04/11 05:01:50;;;;;;;1.90;1.10;;;3.00;99.90;;;;;;6149707;29;20277;-91
2022/04/11 05:05:06;;;;;;;0.83;0.83;;;3.10;99.90;;;;;;6132249;29;20305;-90
2022/04/11 05:08:14;;;;;;;3.50;0.90;;;3.20;99.90;;;;;;6157579;28;20302;-90
2022/04/11 05:11:20;;;;;;;2.97;0.90;;;3.20;99.90;;;;;;6175413;28;20306;-90
2022/04/11 05:14:28;;;;;;;9.87;1.73;;;3.30;99.90;;;;;;6141575;28;20308;-92
2022/04/11 05:17:43;;;;;;;5.90;1.10;;;3.30;99.90;;;;;;6159501;28;20297;-92
2022/04/11 05:20:52;;;;;;;4.07;0.77;;;3.40;99.90;;;;;;6196268;28;20263;-92
2022/04/11 05:24:02;;;;;;;0.97;0.93;;;3.40;99.90;;;;;;6203504;28;20242;-88
2022/04/11 05:27:12;;;;;;;5.90;1.00;;;3.50;99.90;;;;;;6187540;28;20270;-91
2022/04/11 05:30:18;;;;;;;1.93;0.90;;;3.60;99.90;;;;;;6187846;28;20226;-90
2022/04/11 05:33:26;;;;;;;5.73;1.20;;;3.70;99.90;;;;;;6186423;28;20241;-91
2022/04/11 05:36:35;;;;;;;1.93;1.00;;;3.70;99.90;;;;;;6172223;28;20232;-90
2022/04/11 05:39:42;;;;;;;2.90;1.00;;;3.70;99.90;;;;;;6187174;28;20297;-90
2022/04/11 05:42:49;;;;;;;1.63;0.90;;;3.80;99.90;;;;;;6179196;28;20300;-92
2022/04/11 05:45:56;;;;;;;3.67;0.90;;;3.80;99.90;;;;;;6173607;28;20277;-90
2022/04/11 05:49:03;;;;;;;5.73;1.00;;;3.90;99.90;;;;;;6156715;28;20298;-92
2022/04/11 05:52:16;;;;;;;5.17;0.97;;;3.90;99.90;;;;;;6189961;28;20282;-93
2022/04/11 05:55:26;;;;;;;4.03;1.10;;;4.00;99.90;;;;;;6189352;28;20279;-93
2022/04/11 05:58:35;;;;;;;3.30;1.07;;;4.00;99.90;;;;;;6158316;28;20303;-91
2022/04/11 06:01:42;;;;;;;1.53;0.80;;;4.10;99.90;;;;;;6189106;28;20279;-90
2022/04/11 06:04:49;;;;;;;0.93;0.93;;;4.20;99.90;;;;;;6172210;28;20345;-91
2022/04/11 06:07:57;;;;;;;1.70;1.00;;;4.20;99.90;;;;;;6178884;28;20305;-91
2022/04/11 06:11:04;;;;;;;0.70;0.70;;;4.30;99.90;;;;;;6205968;28;20265;-90
2022/04/11 06:14:11;;;;;;;2.93;1.03;;;4.30;99.90;;;;;;6208899;28;20305;-90
2022/04/11 06:17:18;;;;;;;2.97;1.20;;;4.30;99.90;;;;;;6211004;28;20290;-90
2022/04/11 06:23:51;;;;;;;1.27;0.90;;;4.40;99.90;;;;;;6212867;28;20309;-90
2022/04/11 06:27:08;;;;;;;3.00;1.20;;;4.50;99.90;;;;;;6226062;28;20241;-92
2022/04/11 06:33:58;;;;;;;3.17;1.00;;;4.60;99.90;;;;;;6194432;28;20308;-90
2022/04/11 06:37:14;;;;;;;2.20;0.80;;;4.70;99.90;;;;;;6176016;28;20279;-92
2022/04/11 06:40:30;;;;;;;1.17;0.90;;;4.70;99.90;;;;;;6202195;28;20283;-91
2022/04/11 06:43:43;;;;;;;1.77;0.70;;;4.90;99.90;;;;;;6208425;28;20304;-92
2022/04/11 06:47:17;;;;;;;2.30;1.00;;;5.10;99.90;;;;;;6182639;28;20288;-90
2022/04/11 06:50:42;;;;;;;3.20;0.83;;;5.70;98.20;;;;;;6218597;28;20290;-91
2022/04/11 06:54:37;;;;;;;1.30;1.13;;;5.70;98.40;;;;;;6191453;28;20300;-92
2022/04/11 06:57:53;;;;;;;3.07;1.30;;;5.70;97.60;;;;;;6200681;28;20596;-91
2022/04/11 07:01:04;;;;;;;3.63;1.00;;;5.70;97.60;;;;;;6201741;28;20292;-89
2022/04/11 07:04:20;;;;;;;1.60;0.90;;;5.80;97.40;;;;;;6199688;28;20304;-92
2022/04/11 07:07:37;;;;;;;2.53;0.93;;;5.80;96.50;;;;;;6215726;28;20289;-91
2022/04/11 07:10:51;;;;;;;1.37;0.90;;;6.00;96.60;;;;;;6200366;28;20280;-90
2022/04/11 07:14:04;;;;;;;1.67;1.20;;;6.00;95.40;;;;;;6198346;28;20312;-89
2022/04/11 07:17:37;;;;;;;;;;;;;;;;;;;;;
2022/04/11 07:21:16;;;;;;;0.90;0.90;;;6.10;96.20;;;;;;6201732;28;20287;-91
2022/04/11 07:24:48;;;;;;;4.43;1.10;;;6.20;95.40;;;;;;6200021;28;20591;-90
2022/04/11 07:27:56;;;;;;;1.00;1.00;;;6.20;94.60;;;;;;6199403;28;20293;-90
2022/04/11 07:31:06;;;;;;;1.07;1.07;;;6.20;95.50;;;;;;6201234;28;20308;-90
2022/04/11 07:34:17;;;;;;;6.80;1.40;;;6.20;94.80;;;;;;6182958;28;20569;-92
2022/04/11 07:37:25;;;;;;;2.70;1.10;;;6.30;94.60;;;;;;6215637;28;20479;-90
2022/04/11 07:40:31;;;;;;;2.57;1.40;;;6.20;93.90;;;;;;6199663;28;20290;-89
2022/04/11 07:43:38;;;;;;;2.10;1.13;;;6.30;93.50;;;;;;6197853;28;20344;-89
2022/04/11 07:46:45;;;;;;;5.90;1.10;;;6.30;93.60;;;;;;6182456;28;20285;-93
2022/04/11 07:49:51;;;;;;;0.97;0.97;;;6.30;92.50;;;;;;6199019;28;20293;-90
2022/04/11 07:53:07;;;;;;;4.77;1.13;;;6.40;92.20;;;;;;6197795;28;20297;-90
2022/04/11 07:56:14;;;;;;;4.10;1.40;;;6.30;91.60;;;;;;6183558;28;20285;-91
2022/04/11 07:59:26;;;;;;;7.70;1.40;;;6.40;92.50;;;;;;6197695;28;20307;-90
2022/04/11 08:02:36;;;;;;;3.20;1.00;;;6.40;90.70;;;;;;6188526;28;20293;-90
2022/04/11 08:05:43;;;;;;;2.00;1.10;;;6.40;90.00;;;;;;6198878;28;20276;-91
2022/04/11 08:08:51;;;;;;;1.73;1.00;;;6.40;90.00;;;;;;6213212;28;20324;-88
2022/04/11 08:11:57;;;;;;;1.53;1.00;;;6.40;91.10;;;;;;6177988;28;20441;-90
2022/04/11 08:15:04;;;;;;;4.67;1.20;;;6.50;92.00;;;;;;6158679;28;20280;-90
2022/04/11 08:18:15;;;;;;;1.23;1.23;;;6.50;91.80;;;;;;6176612;28;20301;-88
2022/04/11 08:21:24;;;;;;;1.23;0.97;;;6.50;91.60;;;;;;6190525;28;20575;-90
2022/04/11 08:24:30;;;;;;;2.63;1.03;;;6.50;90.60;;;;;;6157584;28;20309;-91
2022/04/11 08:27:37;;;;;;;1.60;1.00;;;6.50;90.20;;;;;;6190847;28;20301;-91
2022/04/11 08:30:45;;;;;;;1.17;1.07;;;6.50;90.10;;;;;;6157874;28;20278;-90
2022/04/11 08:33:53;;;;;;;2.47;1.00;;;6.50;90.70;;;;;;6189843;28;20298;-89
2022/04/11 08:37:00;;;;;;;3.47;1.20;;;6.60;89.30;;;;;;6174424;28;20274;-90
2022/04/11 08:40:11;;;;;;;2.50;1.13;;;6.50;86.90;;;;;;6192145;28;20270;-91
2022/04/11 08:43:23;;;;;;;1.20;1.20;;;6.60;85.60;;;;;;6173357;28;20309;-91
2022/04/11 08:46:34;;;;;;;1.17;1.07;;;6.60;82.20;;;;;;6174408;28;20266;-92
2022/04/11 08:49:48;;;;;;;1.00;1.00;;;6.70;81.40;;;;;;6158682;28;20310;-89
2022/04/11 09:01:36;;;;;;;1.10;1.10;;;6.70;79.00;;;;;;6093602;29;20455;-89
2022/04/11 09:04:58;;;;;;;1.43;1.00;;;6.80;79.80;;;;;;6156357;28;20302;-91
2022/04/11 09:12:04;;;;;;;1.57;1.17;;;6.80;79.00;;;;;;6169041;28;20262;-91
2022/04/11 09:15:55;;;;;;;2.73;1.10;;;6.90;76.60;;;;;;6172772;28;20277;-91
2022/04/11 09:19:15;;;;;;;4.20;1.20;;;7.00;80.20;;;;;;6179876;28;20306;-91
2022/04/11 09:23:33;;;;;;;1.40;1.40;;;7.00;80.00;;;;;;6181305;28;20282;-92
2022/04/11 09:28:13;;;;;;;1.80;1.00;;;7.10;82.00;;;;;;6135704;29;20311;-92
2022/04/11 09:32:17;;;;;;;1.50;1.00;;;7.10;81.40;;;;;;6138758;29;20275;-91
2022/04/11 09:44:53;;;;;;;1.10;1.10;;;7.20;81.40;;;;;;6139359;29;20299;-92
2022/04/11 09:48:45;;;;;;;1.30;1.20;;;7.30;79.10;;;;;;6107184;29;20294;-93
2022/04/11 10:01:04;;;;;;;3.13;1.10;;;7.40;76.10;;;;;;6187994;28;20278;-89
2022/04/11 10:04:52;;;;;;;1.67;1.10;;;7.50;74.80;;;;;;6156534;28;20299;-90
2022/04/11 10:08:28;;;;;;;1.20;1.05;;;7.60;73.90;;;;;;6177354;28;20293;-90
2022/04/11 10:11:52;;;;;;;2.53;0.95;;;7.60;70.70;;;;;;6185699;28;20561;-91
2022/04/11 10:15:04;;;;;;;1.33;1.33;;;7.70;71.70;;;;;;6162511;28;20380;-91
2022/04/11 10:18:51;;;;;;;0.90;0.90;;;7.70;71.60;;;;;;6184383;28;20249;-90
2022/04/11 10:22:39;;;;;;;6.53;3.15;;;7.80;63.60;;;;;;6168149;28;20246;-90
2022/04/11 10:25:57;;;;;;;3.45;1.00;;;7.80;61.60;;;;;;6175471;28;20241;-89
2022/04/11 10:29:09;;;;;;;0.80;0.80;;;7.90;55.10;;;;;;6178320;28;20301;-90
2022/04/11 10:32:24;;;;;;;3.55;0.98;;;8.00;56.20;;;;;;6193286;28;20310;-89
2022/04/11 11:07:34;;;;;;;1.50;1.05;;;8.50;52.50;;;;;;5904105;29;20286;-92
2022/04/11 11:10:42;;;;;;;1.02;0.90;;;8.70;50.20;;;;;;5961745;29;20469;-91
2022/04/11 11:13:49;;;;;;;0.82;0.82;;;8.70;49.80;;;;;;6002962;29;20300;-91
2022/04/11 11:17:01;;;;;;;1.55;0.82;;;8.70;50.40;;;;;;6077252;29;20328;-91
2022/04/11 11:20:11;;;;;;;0.90;0.90;;;8.70;50.40;;;;;;6179494;28;20281;-93
2022/04/11 11:23:29;;;;;;;0.80;0.80;;;8.90;49.00;;;;;;6200506;28;20317;-94
2022/04/11 11:26:48;;;;;;;0.77;0.77;;;9.00;49.60;;;;;;6207686;28;20261;-93
2022/04/11 12:01:38;;;;;;;2.20;0.93;;;9.30;49.80;;;;;;5913934;30;20281;-91
2022/04/11 12:05:34;;;;;;;1.95;0.85;;;9.30;50.80;;;;;;5916202;30;20281;-91
2022/04/11 12:18:15;;;;;;;2.88;1.20;;;9.40;48.30;;;;;;5910090;30;20298;-90
2022/04/11 12:37:27;;;;;;;4.53;0.90;;;9.50;46.80;;;;;;5913876;30;20301;-92
2022/04/11 12:42:17;;;;;;;;;;;;;;;;;;;;;
2022/04/11 12:55:20;;;;;;;1.27;1.05;;;9.70;46.70;;;;;;6022446;29;20295;-93
2022/04/11 12:58:56;;;;;;;1.10;1.10;;;9.80;45.50;;;;;;6109293;29;20310;-94
2022/04/11 13:02:26;;;;;;;;;;;;;;;;;;;;;
2022/04/11 13:06:13;;;;;;;6.20;1.00;;;9.70;45.40;;;;;;6168957;28;20269;-91
2022/04/11 13:09:33;;;;;;;1.27;1.10;;;9.80;45.20;;;;;;6179466;28;20313;-93
2022/04/11 13:13:05;;;;;;;0.95;0.90;;;9.90;45.50;;;;;;6169854;28;20298;-92
2022/04/11 13:20:28;;;;;;;1.48;0.95;;;9.90;46.90;;;;;;6196028;28;20470;-91
2022/04/11 13:23:37;;;;;;;0.80;0.80;;;9.90;45.60;;;;;;6171023;28;20307;-91
2022/04/11 13:26:44;;;;;;;3.22;0.90;;;10.00;43.40;;;;;;6190230;28;20274;-90
2022/04/11 13:30:02;;;;;;;2.30;0.95;;;10.00;44.70;;;;;;6202551;28;20307;-93
2022/04/11 13:38:30;;;;;;;3.35;0.90;;;9.90;43.80;;;;;;6142857;28;20298;-92
2022/04/11 13:42:04;;;;;;;0.98;0.88;;;9.90;44.50;;;;;;6169963;28;20270;-93
2022/04/11 13:45:32;;;;;;;1.65;1.00;;;9.90;44.50;;;;;;6181264;28;20321;-93
2022/04/11 13:53:11;;;;;;;0.77;0.75;;;9.90;44.50;;;;;;6183084;28;20242;-91
2022/04/11 13:56:22;;;;;;;0.93;0.90;;;10.00;44.20;;;;;;6192755;28;20226;-91
2022/04/11 13:59:40;;;;;;;1.15;0.75;;;10.00;43.90;;;;;;6208756;28;20250;-92
2022/04/11 14:03:02;;;;;;;1.95;0.70;;;10.00;44.60;;;;;;6169445;28;20240;-90
2022/04/11 14:06:35;;;;;;;2.80;0.90;;;10.00;44.90;;;;;;6172441;28;20239;-91
2022/04/11 14:09:42;;;;;;;2.38;0.95;;;10.00;45.10;;;;;;6205965;23;20308;-76
2022/04/11 14:12:47;;;;;;;0.77;0.77;;;10.00;45.70;;;;;;6215993;28;20301;-76
2022/04/11 14:15:52;;;;;;;1.25;1.02;;;10.00;44.20;;;;;;6216019;28;20276;-77
2022/04/11 14:18:57;;;;;;;4.68;1.20;;;10.00;44.70;;;;;;6215872;28;20301;-77
2022/04/11 14:22:05;;;;;;;3.08;1.13;;;10.00;45.30;;;;;;6214778;28;20269;-76
2022/04/11 14:25:12;;;;;;;3.45;1.10;;;9.90;45.70;;;;;;6215683;28;20293;-76
2022/04/11 14:28:38;;;;;;;2.58;1.10;;;9.90;44.60;;;;;;6214660;28;20301;-76
2022/04/11 14:31:43;;;;;;;0.85;0.85;;;9.90;45.50;;;;;;6215464;28;20273;-76
2022/04/11 14:34:49;;;;;;;2.95;0.90;;;9.90;46.00;;;;;;6214803;28;20305;-76
2022/04/11 14:37:56;;;;;;;0.98;0.98;;;9.80;44.60;;;;;;6215273;28;20477;-76
2022/04/11 14:41:02;;;;;;;1.10;1.10;;;9.90;44.50;;;;;;6215217;28;20277;-76
2022/04/11 14:44:09;;;;;;;2.40;0.90;;;9.80;46.40;;;;;;6214946;28;20305;-76
2022/04/11 14:47:15;;;;;;;2.45;1.17;;;9.70;45.50;;;;;;6214862;28;20273;-76
2022/04/11 14:50:21;;;;;;;1.00;1.00;;;9.80;43.90;;;;;;6215230;28;20273;-77
2022/04/11 14:53:27;;;;;;;1.45;1.20;;;9.80;43.90;;;;;;6214564;28;20448;-76
2022/04/11 14:56:33;;;;;;;1.33;1.23;;;9.70;44.30;;;;;;6214668;28;20277;-76
2022/04/11 14:59:38;;;;;;;2.35;1.65;;;9.70;44.80;;;;;;6214233;28;20302;-76
2022/04/11 15:02:43;;;;;;;1.48;1.08;;;9.70;45.00;;;;;;6214506;28;20300;-76
2022/04/11 15:05:49;;;;;;;0.90;0.90;;;9.70;45.60;;;;;;6214459;28;20328;-76
2022/04/11 15:08:55;;;;;;;1.98;0.77;;;9.70;44.30;;;;;;6222790;28;20300;-76
2022/04/11 15:12:02;;;;;;;2.28;0.95;;;9.70;43.20;;;;;;6238366;28;20269;-75
2022/04/11 15:15:09;;;;;;;1.88;0.90;;;9.60;45.00;;;;;;6238786;28;20632;-76
2022/04/11 15:18:17;;;;;;;3.22;1.17;;;9.60;45.60;;;;;;6238219;28;20296;-76
2022/04/11 15:21:22;;;;;;;2.22;0.98;;;9.50;44.90;;;;;;6238789;28;20277;-75
2022/04/11 15:24:29;;;;;;;1.02;1.00;;;9.50;42.70;;;;;;6237755;28;20292;-75
2022/04/11 15:27:34;;;;;;;0.85;0.85;;;9.50;43.60;;;;;;6237915;28;20296;-76
2022/04/11 15:30:55;;;;;;;1.00;1.00;;;9.50;43.70;;;;;;6238147;28;20268;-76
2022/04/11 15:34:02;;;;;;;0.90;0.90;;;9.40;45.00;;;;;;6237927;28;20314;-76
2022/04/11 15:37:13;;;;;;;1.00;1.00;;;9.40;44.20;;;;;;6237756;28;20276;-76
2022/04/11 15:40:19;;;;;;;1.15;0.95;;;9.40;43.40;;;;;;6237691;28;20268;-76
2022/04/11 15:43:24;;;;;;;1.35;1.00;;;9.30;43.00;;;;;;6237336;28;20296;-76
2022/04/11 15:46:30;;;;;;;0.90;0.90;;;9.30;44.10;;;;;;6238360;28;20292;-76
2022/04/11 15:49:35;;;;;;;1.00;1.00;;;9.20;43.90;;;;;;6237599;28;20308;-75
2022/04/11 15:52:40;;;;;;;1.38;0.90;;;9.20;44.40;;;;;;6237283;28;20292;-76
2022/04/11 15:55:47;;;;;;;2.80;0.88;;;9.20;45.40;;;;;;6237586;28;20280;-76
2022/04/11 15:58:52;;;;;;;1.65;1.02;;;9.10;44.50;;;;;;6237201;28;20301;-76
2022/04/11 16:01:57;;;;;;;0.98;0.90;;;9.30;43.60;;;;;;6237775;28;20273;-75
2022/04/11 16:05:03;;;;;;;3.92;1.00;;;9.20;43.70;;;;;;6236166;28;20277;-76
2022/04/11 16:08:12;;;;;;;0.93;0.93;;;9.10;44.70;;;;;;6220119;28;20304;-76
2022/04/11 16:11:18;;;;;;;1.58;1.00;;;9.10;45.50;;;;;;6222394;28;20265;-75
2022/04/11 16:14:24;;;;;;;1.00;1.00;;;9.00;44.90;;;;;;6212659;28;20285;-76
2022/04/11 16:17:30;;;;;;;4.13;1.15;;;9.00;45.00;;;;;;6212662;28;20297;-76
2022/04/11 16:20:35;;;;;;;1.30;0.88;;;8.90;45.20;;;;;;6213332;28;20281;-75
2022/04/11 16:23:40;;;;;;;0.98;0.98;;;8.90;46.40;;;;;;6212075;28;20297;-76
2022/04/11 16:26:48;;;;;;;1.35;1.00;;;8.80;46.10;;;;;;6212798;28;20297;-75
2022/04/11 16:29:54;;;;;;;3.20;0.90;;;8.70;47.10;;;;;;6212942;28;20302;-75
2022/04/11 16:33:00;;;;;;;2.28;1.00;;;8.70;47.00;;;;;;6212414;28;20536;-76
2022/04/11 16:36:07;;;;;;;1.00;1.00;;;8.70;46.40;;;;;;6212901;28;20213;-75
2022/04/11 16:39:13;;;;;;;1.65;1.00;;;8.60;46.60;;;;;;6212447;28;20592;-75
2022/04/11 16:42:19;;;;;;;1.92;1.00;;;8.60;47.90;;;;;;6212318;28;20454;-76
2022/04/11 16:45:24;;;;;;;1.02;1.02;;;8.60;47.10;;;;;;6211696;28;20459;-76
2022/04/11 16:48:30;;;;;;;1.00;1.00;;;8.50;47.00;;;;;;6212641;28;20296;-77
2022/04/11 16:51:35;;;;;;;1.20;1.20;;;8.50;46.50;;;;;;6212688;28;20555;-76
2022/04/11 16:54:40;;;;;;;4.22;1.40;;;8.40;47.10;;;;;;6211928;28;20593;-75
2022/04/11 16:57:47;;;;;;;1.38;1.30;;;8.40;47.00;;;;;;6211703;28;20293;-75
2022/04/11 17:00:53;;;;;;;1.73;1.55;;;8.40;47.30;;;;;;6212225;28;20460;-76
2022/04/11 17:04:00;;;;;;;1.20;1.20;;;8.30;47.30;;;;;;6210348;28;20297;-75
2022/04/11 17:07:06;;;;;;;3.50;1.17;;;8.30;47.70;;;;;;6211409;28;20293;-76
2022/04/11 17:10:12;;;;;;;3.15;1.00;;;8.20;47.40;;;;;;6230813;28;20292;-77
2022/04/11 17:13:19;;;;;;;2.03;1.58;;;8.20;47.20;;;;;;6236091;28;20300;-75
2022/04/11 17:19:56;;;;;;;4.38;1.15;;;8.00;48.90;;;;;;6181264;28;20590;-76
2022/04/11 17:23:01;;;;;;;3.72;1.63;;;8.00;48.60;;;;;;6218356;28;20467;-76
2022/04/11 17:26:08;;;;;;;1.80;1.70;;;7.90;49.80;;;;;;6235913;28;20280;-76
2022/04/11 17:29:14;;;;;;;1.42;1.33;;;7.90;49.80;;;;;;6235754;28;20332;-77
2022/04/11 17:32:19;;;;;;;1.63;1.20;;;7.80;50.20;;;;;;6235821;28;20316;-76
2022/04/11 17:35:25;;;;;;;3.13;1.20;;;7.70;50.40;;;;;;6235956;28;20273;-76
2022/04/11 17:38:30;;;;;;;2.88;1.40;;;7.70;50.00;;;;;;6235894;28;20300;-75
2022/04/11 17:41:35;;;;;;;5.32;1.48;;;7.70;49.90;;;;;;6236364;28;20281;-75
2022/04/11 17:44:42;;;;;;;18.67;2.72;;;7.60;50.40;;;;;;6235960;28;20300;-76
2022/04/11 17:47:47;;;;;;;8.30;2.60;;;7.60;49.00;;;;;;6235182;28;20296;-75
2022/04/11 17:50:53;;;;;;;6.25;3.63;;;7.50;50.90;;;;;;6236356;28;20277;-75
2022/04/11 17:53:58;;;;;;;13.27;3.15;;;7.40;51.50;;;;;;6235723;28;20300;-76
2022/04/11 17:57:03;;;;;;;21.95;4.18;;;7.20;55.50;;;;;;6235332;28;20280;-76
2022/04/11 18:00:13;;;;;;;26.77;4.97;;;7.20;53.10;;;;;;6235668;28;20272;-77
2022/04/11 18:03:18;;;;;;;31.67;5.35;;;7.10;54.50;;;;;;6235181;28;20292;-75
2022/04/11 18:06:25;;;;;;;19.70;4.68;;;7.00;54.90;;;;;;6240353;28;20272;-84
2022/04/11 18:09:30;;;;;;;24.63;5.47;;;7.00;53.40;;;;;;6221503;28;20296;-90
2022/04/11 18:12:36;;;;;;;29.05;5.43;;;6.90;55.00;;;;;;6215947;28;20298;-76
2022/04/11 18:15:43;;;;;;;21.73;4.90;;;6.90;54.60;;;;;;6216152;28;20269;-77
2022/04/11 18:18:48;;;;;;;35.22;5.72;;;6.90;53.90;;;;;;6215766;28;20305;-77
2022/04/11 18:21:54;;;;;;;31.65;5.57;;;6.80;55.60;;;;;;6216038;28;20273;-75
2022/04/11 18:24:59;;;;;;;31.60;4.97;;;6.70;56.20;;;;;;6215504;28;20470;-78
2022/04/11 18:31:35;;;;;;;18.25;3.60;;;6.60;54.60;;;;;;6215248;28;20278;-77
2022/04/11 18:34:41;;;;;;;16.52;3.05;;;6.60;55.30;;;;;;6215277;28;20297;-76
2022/04/11 18:37:47;;;;;;;22.23;2.90;;;6.50;55.20;;;;;;6213563;28;20321;-76
2022/04/11 18:40:52;;;;;;;19.38;3.13;;;6.50;55.40;;;;;;6215429;28;20277;-77
2022/04/11 18:43:59;;;;;;;21.90;3.42;;;6.40;55.80;;;;;;6214959;28;20383;-77
2022/04/11 18:47:07;;;;;;;24.42;2.42;;;6.40;57.60;;;;;;6214615;28;20309;-77
2022/04/11 18:50:13;;;;;;;18.75;2.35;;;6.30;59.90;;;;;;6215293;28;20549;-78
2022/04/11 18:53:18;;;;;;;16.20;2.60;;;6.20;60.10;;;;;;6214896;28;20296;-79
2022/04/11 18:56:23;;;;;;;35.13;3.30;;;6.10;70.30;;;;;;6215182;28;20272;-76
2022/04/11 18:59:28;;;;;;;33.53;3.73;;;6.00;69.40;;;;;;6214719;28;20293;-75
2022/04/11 19:02:35;;;;;;;28.73;3.42;;;6.00;70.50;;;;;;6215045;28;20330;-77
2022/04/11 19:05:42;;;;;;;41.30;4.07;;;5.90;72.30;;;;;;6215261;28;20273;-77
2022/04/11 19:08:47;;;;;;;27.83;3.87;;;5.90;70.50;;;;;;6236471;28;20308;-81
2022/04/11 19:11:52;;;;;;;27.48;3.65;;;5.70;77.90;;;;;;6238855;28;20272;-75
2022/04/11 19:14:58;;;;;;;59.80;4.90;;;5.70;85.20;;;;;;6238164;28;20296;-77
2022/04/11 19:18:08;;;;;;;37.90;5.60;;;5.50;88.00;;;;;;6237469;28;20305;-77
2022/04/11 19:21:14;;;;;;;49.80;5.30;;;5.50;87.40;;;;;;6238597;28;20272;-76
2022/04/11 19:24:19;;;;;;;36.90;4.60;;;5.50;88.50;;;;;;6238504;28;20296;-80
2022/04/11 19:27:24;;;;;;;67.33;5.57;;;5.40;90.60;;;;;;6237917;28;20300;-79
2022/04/11 19:30:30;;;;;;;47.37;5.07;;;5.30;92.00;;;;;;6238836;28;20587;-78